createdAt,value
2022-09-14T00:01:25.864Z,20.55
2022-09-14T00:03:55.846Z,20.76
2022-09-14T00:06:22.478Z,20.62
2022-09-14T00:08:54.195Z,20.47
2022-09-14T00:11:23.355Z,20.51
2022-09-14T00:13:51.883Z,20.42
2022-09-14T00:16:22.186Z,20.30
2022-09-14T00:18:57.207Z,20.38
2022-09-14T00:21:24.295Z,20.32
2022-09-14T00:23:50.907Z,20.35
2022-09-14T00:26:20.422Z,20.37
2022-09-14T00:28:51.991Z,20.25
2022-09-14T00:31:19.994Z,20.35
2022-09-14T00:33:48.401Z,20.34
2022-09-14T00:36:17.734Z,20.30
2022-09-14T00:38:46.716Z,20.44
2022-09-14T00:41:18.505Z,20.46
2022-09-14T00:44:00.667Z,20.39
2022-09-14T00:46:30.498Z,20.42
2022-09-14T00:49:00.281Z,20.42
2022-09-14T00:51:29.918Z,20.28
2022-09-14T00:53:56.924Z,20.29
2022-09-14T00:56:23.523Z,20.29
2022-09-14T00:58:53.172Z,20.32
2022-09-14T01:01:20.193Z,20.26
2022-09-14T01:03:46.985Z,20.17
2022-09-14T01:06:13.710Z,20.16
2022-09-14T01:09:01.078Z,20.07
2022-09-14T01:11:48.351Z,20.17
2022-09-14T01:14:23.053Z,20.06
2022-09-14T01:17:16.172Z,20.11
2022-09-14T01:20:00.919Z,20.32
2022-09-14T01:22:59.604Z,20.21
2022-09-14T01:25:32.416Z,20.22
2022-09-14T01:28:03.400Z,20.11
2022-09-14T01:30:33.611Z,20.03
2022-09-14T01:33:09.731Z,20.08
2022-09-14T01:35:43.583Z,19.98
2022-09-14T01:38:22.365Z,19.96
2022-09-14T01:40:50.931Z,19.97
2022-09-14T01:43:36.571Z,19.98
2022-09-14T01:46:10.276Z,19.91
2022-09-14T01:48:45.324Z,19.76
2022-09-14T01:51:16.694Z,19.77
2022-09-14T01:53:49.018Z,19.84
2022-09-14T01:59:22.874Z,19.78
2022-09-14T02:02:01.888Z,19.87
2022-09-14T02:04:55.359Z,19.82
2022-09-14T02:07:21.957Z,19.83
2022-09-14T02:09:49.201Z,19.68
2022-09-14T02:12:16.590Z,19.84
2022-09-14T02:14:45.077Z,19.86
2022-09-14T02:17:12.678Z,19.81
2022-09-14T02:19:50.679Z,19.85
2022-09-14T02:22:17.234Z,19.79
2022-09-14T02:24:45.774Z,19.71
2022-09-14T02:27:12.312Z,19.86
2022-09-14T02:29:38.984Z,19.80
2022-09-14T02:32:36.889Z,19.89
2022-09-14T02:35:44.049Z,19.92
2022-09-14T02:38:37.932Z,19.90
2022-09-14T02:41:30.626Z,19.78
2022-09-14T02:44:15.514Z,19.84
2022-09-14T02:46:44.979Z,19.82
2022-09-14T02:49:18.764Z,19.79
2022-09-14T02:52:02.819Z,19.78
2022-09-14T02:54:40.344Z,19.80
2022-09-14T02:57:06.946Z,19.78
2022-09-14T02:59:33.494Z,19.84
2022-09-14T03:02:01.455Z,19.86
2022-09-14T03:04:28.298Z,19.82
2022-09-14T03:06:54.895Z,19.92
2022-09-14T03:09:21.484Z,19.88
2022-09-14T03:11:48.249Z,19.82
2022-09-14T03:16:58.737Z,19.41
2022-09-14T03:19:25.248Z,19.08
2022-09-14T03:21:51.823Z,18.90
2022-09-14T03:24:18.358Z,19.01
2022-09-14T03:26:45.843Z,19.21
2022-09-14T03:29:12.392Z,19.33
2022-09-14T03:31:39.026Z,19.32
2022-09-14T03:34:05.583Z,19.26
2022-09-14T03:36:32.361Z,19.38
2022-09-14T03:39:01.847Z,19.47
2022-09-14T03:41:28.676Z,19.37
2022-09-14T03:43:55.340Z,19.47
2022-09-14T03:46:24.030Z,19.45
2022-09-14T03:48:51.210Z,19.53
2022-09-14T03:51:18.384Z,19.74
2022-09-14T03:53:48.438Z,19.62
2022-09-14T03:56:18.005Z,19.81
2022-09-14T03:58:48.709Z,19.86
2022-09-14T04:01:18.141Z,19.88
2022-09-14T04:03:48.725Z,19.94
2022-09-14T04:06:16.554Z,19.91
2022-09-14T04:08:44.711Z,20.01
2022-09-14T04:11:17.600Z,20.04
2022-09-14T04:13:44.405Z,19.94
2022-09-14T04:16:11.786Z,19.87
2022-09-14T04:18:38.496Z,19.92
2022-09-14T04:21:09.384Z,20.02
2022-09-14T04:23:56.618Z,19.95
2022-09-14T04:26:25.850Z,20.03
2022-09-14T04:28:52.420Z,19.93
2022-09-14T04:31:19.462Z,19.99
2022-09-14T04:33:48.597Z,20.13
2022-09-14T04:36:18.361Z,20.19
2022-09-14T04:38:45.401Z,20.15
2022-09-14T04:41:14.824Z,20.22
2022-09-14T04:43:41.679Z,20.14
2022-09-14T04:46:12.395Z,20.27
2022-09-14T04:48:39.047Z,19.91
2022-09-14T04:51:19.727Z,20.11
2022-09-14T04:53:51.916Z,20.01
2022-09-14T04:56:21.706Z,20.11
2022-09-14T04:58:55.230Z,19.98
2022-09-14T05:01:30.823Z,20.03
2022-09-14T05:03:58.731Z,20.18
2022-09-14T05:06:28.094Z,20.23
2022-09-14T05:08:55.585Z,20.23
2022-09-14T05:11:24.454Z,20.04
2022-09-14T05:13:51.718Z,20.01
2022-09-14T05:16:23.875Z,19.90
2022-09-14T05:18:53.416Z,19.59
2022-09-14T05:21:22.284Z,19.77
2022-09-14T05:23:57.332Z,19.85
2022-09-14T05:26:25.108Z,20.12
2022-09-14T05:28:53.865Z,20.14
2022-09-14T05:31:25.476Z,20.15
2022-09-14T05:33:53.070Z,20.13
2022-09-14T05:36:21.783Z,20.05
2022-09-14T05:38:48.465Z,19.90
2022-09-14T05:41:16.486Z,19.78
2022-09-14T05:43:43.052Z,19.80
2022-09-14T05:46:14.881Z,19.67
2022-09-14T05:48:41.768Z,19.61
2022-09-14T05:51:11.888Z,19.53
2022-09-14T05:53:38.404Z,19.76
2022-09-14T05:56:07.401Z,20.01
2022-09-14T05:58:35.298Z,20.02
2022-09-14T06:01:15.696Z,20.04
2022-09-14T06:03:47.889Z,19.87
2022-09-14T06:06:17.072Z,19.93
2022-09-14T06:08:44.691Z,19.79
2022-09-14T06:11:16.859Z,19.86
2022-09-14T06:13:44.312Z,19.89
2022-09-14T06:16:13.558Z,19.90
2022-09-14T06:18:41.042Z,20.06
2022-09-14T06:21:09.169Z,20.00
2022-09-14T06:23:36.011Z,20.21
2022-09-14T06:26:04.554Z,20.10
2022-09-14T06:28:31.935Z,20.33
2022-09-14T06:30:58.800Z,20.35
2022-09-14T06:33:27.885Z,20.41
2022-09-14T06:35:56.521Z,20.43
2022-09-14T06:38:23.335Z,20.34
2022-09-14T06:40:55.916Z,20.31
2022-09-14T06:43:26.665Z,20.52
2022-09-14T06:46:04.577Z,20.44
2022-09-14T06:48:34.823Z,20.39
2022-09-14T06:51:10.438Z,20.44
2022-09-14T06:53:36.949Z,20.55
2022-09-14T06:56:03.542Z,20.53
2022-09-14T06:58:30.049Z,20.60
2022-09-14T07:01:01.752Z,20.60
2022-09-14T07:03:28.269Z,20.82
2022-09-14T07:06:06.356Z,20.70
2022-09-14T07:08:34.323Z,20.93
2022-09-14T07:11:01.715Z,21.02
2022-09-14T07:13:29.679Z,21.14
2022-09-14T07:15:56.219Z,21.08
2022-09-14T07:18:28.319Z,21.05
2022-09-14T07:20:55.570Z,20.93
2022-09-14T07:23:25.553Z,20.85
2022-09-14T07:26:16.871Z,20.66
2022-09-14T07:28:45.986Z,20.75
2022-09-14T07:31:18.986Z,20.70
2022-09-14T07:33:46.930Z,20.81
2022-09-14T07:36:14.750Z,20.98
2022-09-14T07:39:01.070Z,21.24
2022-09-14T07:41:29.735Z,21.41
2022-09-14T07:44:00.331Z,21.57
2022-09-14T07:46:28.732Z,21.61
2022-09-14T07:48:57.334Z,21.81
2022-09-14T07:51:25.114Z,21.71
2022-09-14T07:53:55.076Z,21.72
2022-09-14T07:56:25.877Z,21.78
2022-09-14T07:58:56.647Z,21.86
2022-09-14T08:01:30.288Z,21.85
2022-09-14T08:04:05.213Z,21.92
2022-09-14T08:06:32.482Z,21.96
2022-09-14T08:08:59.221Z,22.16
2022-09-14T08:11:31.124Z,22.13
2022-09-14T08:14:03.480Z,22.17
2022-09-14T08:16:32.320Z,22.25
2022-09-14T08:19:02.091Z,22.46
2022-09-14T08:21:30.882Z,22.55
2022-09-14T08:23:57.975Z,23.05
2022-09-14T08:26:27.141Z,23.57
2022-09-14T08:28:55.125Z,23.72
2022-09-14T08:31:24.807Z,23.57
2022-09-14T08:33:58.468Z,23.83
2022-09-14T08:36:27.476Z,23.99
2022-09-14T08:38:54.267Z,23.97
2022-09-14T08:41:39.128Z,24.17
2022-09-14T08:44:18.661Z,24.46
2022-09-14T08:47:00.238Z,24.87
2022-09-14T08:49:44.816Z,25.36
2022-09-14T08:52:23.341Z,25.87
2022-09-14T08:54:57.732Z,25.97
2022-09-14T08:57:38.116Z,26.34
2022-09-14T09:00:12.101Z,27.24
2022-09-14T09:02:38.676Z,27.79
2022-09-14T09:05:32.798Z,27.88
2022-09-14T09:08:17.633Z,28.11
2022-09-14T09:10:46.481Z,28.65
2022-09-14T09:13:19.004Z,29.12
2022-09-14T09:15:54.837Z,29.70
2022-09-14T09:18:42.215Z,30.35
2022-09-14T09:21:16.735Z,30.88
2022-09-14T09:23:44.076Z,30.91
2022-09-14T09:26:15.221Z,31.30
2022-09-14T09:28:49.592Z,32.11
2022-09-14T09:31:19.131Z,32.38
2022-09-14T09:33:51.162Z,32.43
2022-09-14T09:36:18.461Z,32.51
2022-09-14T09:38:44.971Z,32.74
2022-09-14T09:41:24.091Z,32.86
2022-09-14T09:43:59.189Z,32.77
2022-09-14T09:46:27.223Z,32.90
2022-09-14T09:48:54.321Z,33.22
2022-09-14T09:51:24.223Z,33.93
2022-09-14T09:53:54.566Z,34.20
2022-09-14T09:56:27.621Z,34.27
2022-09-14T09:58:56.182Z,33.85
2022-09-14T10:01:23.237Z,33.79
2022-09-14T10:04:08.706Z,33.90
2022-09-14T10:06:53.175Z,33.96
2022-09-14T10:09:31.512Z,34.16
2022-09-14T10:12:01.638Z,34.46
2022-09-14T10:14:35.636Z,34.75
2022-09-14T10:17:19.060Z,34.89
2022-09-14T10:19:53.990Z,34.98
2022-09-14T10:22:29.656Z,35.49
2022-09-14T10:25:23.155Z,35.54
2022-09-14T10:27:55.654Z,34.81
2022-09-14T10:30:25.287Z,33.83
2022-09-14T10:33:02.319Z,32.93
2022-09-14T10:35:54.494Z,32.12
2022-09-14T10:38:24.782Z,31.87
2022-09-14T10:41:05.271Z,31.63
2022-09-14T10:43:56.821Z,31.90
2022-09-14T10:46:31.043Z,32.53
2022-09-14T10:49:14.865Z,33.58
2022-09-14T10:52:08.360Z,33.94
2022-09-14T10:55:11.589Z,34.25
2022-09-14T10:58:00.172Z,34.64
2022-09-14T11:00:30.957Z,34.64
2022-09-14T11:03:07.063Z,33.80
2022-09-14T11:05:42.632Z,32.82
2022-09-14T11:08:27.140Z,31.92
2022-09-14T11:11:22.873Z,31.07
2022-09-14T11:14:08.242Z,30.44
2022-09-14T11:16:47.748Z,29.88
2022-09-14T11:19:32.978Z,29.42
2022-09-14T11:22:11.827Z,29.06
2022-09-14T11:25:03.110Z,28.69
2022-09-14T11:27:37.076Z,28.51
2022-09-14T11:30:12.413Z,28.43
2022-09-14T11:32:57.921Z,28.40
2022-09-14T11:36:02.646Z,28.94
2022-09-14T11:38:41.586Z,29.41
2022-09-14T11:41:30.004Z,29.71
2022-09-14T11:44:05.522Z,30.19
2022-09-14T11:46:36.033Z,31.25
2022-09-14T11:49:10.725Z,31.83
2022-09-14T11:51:56.578Z,32.51
2022-09-14T11:54:25.981Z,33.28
2022-09-14T11:56:59.067Z,34.45
2022-09-14T11:59:50.420Z,35.51
2022-09-14T12:02:26.448Z,35.82
2022-09-14T12:05:05.077Z,36.33
2022-09-14T12:07:45.362Z,36.41
2022-09-14T12:10:15.182Z,35.85
2022-09-14T12:12:47.800Z,35.52
2022-09-14T12:15:26.053Z,35.51
2022-09-14T12:18:10.876Z,34.54
2022-09-14T12:20:37.335Z,33.55
2022-09-14T12:23:07.660Z,32.66
2022-09-14T12:25:35.072Z,31.84
2022-09-14T12:28:01.736Z,31.20
2022-09-14T12:30:41.120Z,30.69
2022-09-14T12:33:31.496Z,30.19
2022-09-14T12:36:05.443Z,29.85
2022-09-14T12:38:33.185Z,29.56
2022-09-14T12:41:11.565Z,29.33
2022-09-14T12:43:50.613Z,29.17
2022-09-14T12:46:20.447Z,30.18
2022-09-14T12:48:50.983Z,32.05
2022-09-14T12:51:26.653Z,33.46
2022-09-14T12:54:11.898Z,33.90
2022-09-14T12:56:41.357Z,33.27
2022-09-14T12:59:26.523Z,32.12
2022-09-14T13:01:56.061Z,31.32
2022-09-14T13:04:47.840Z,30.81
2022-09-14T13:07:17.861Z,30.29
2022-09-14T13:09:55.184Z,31.37
2022-09-14T13:12:37.135Z,32.43
2022-09-14T13:15:24.873Z,32.14
2022-09-14T13:18:03.653Z,31.73
2022-09-14T13:20:33.658Z,31.53
2022-09-14T13:23:00.887Z,30.84
2022-09-14T13:25:36.631Z,29.91
2022-09-14T13:28:13.413Z,29.34
2022-09-14T13:30:41.884Z,28.72
2022-09-14T13:33:17.271Z,28.06
2022-09-14T13:35:51.288Z,27.82
2022-09-14T13:38:22.890Z,27.84
2022-09-14T13:40:51.886Z,28.15
2022-09-14T13:43:22.215Z,28.79
2022-09-14T13:45:50.446Z,29.14
2022-09-14T13:48:19.751Z,29.53
2022-09-14T13:50:51.230Z,29.56
2022-09-14T13:53:42.782Z,29.16
2022-09-14T13:56:22.498Z,28.86
2022-09-14T13:59:11.143Z,28.63
2022-09-14T14:01:58.763Z,28.55
2022-09-14T14:04:35.685Z,28.46
2022-09-14T14:07:23.251Z,28.53
2022-09-14T14:09:55.619Z,29.42
2022-09-14T14:12:28.927Z,30.35
2022-09-14T14:14:59.658Z,30.81
2022-09-14T14:17:28.883Z,30.94
2022-09-14T14:20:00.626Z,30.29
2022-09-14T14:22:35.597Z,29.55
2022-09-14T14:25:19.439Z,29.21
2022-09-14T14:27:48.047Z,28.90
2022-09-14T14:30:20.449Z,28.49
2022-09-14T14:32:57.189Z,28.33
2022-09-14T14:35:32.314Z,28.19
2022-09-14T14:37:59.190Z,27.86
2022-09-14T14:40:30.953Z,27.61
2022-09-14T14:42:59.124Z,27.35
2022-09-14T14:45:35.371Z,27.11
2022-09-14T14:48:02.904Z,27.00
2022-09-14T14:50:33.826Z,27.02
2022-09-14T14:53:01.689Z,26.94
2022-09-14T14:55:31.990Z,26.84
2022-09-14T14:58:01.181Z,26.58
2022-09-14T15:00:33.291Z,26.29
2022-09-14T15:03:00.356Z,26.15
2022-09-14T15:05:29.520Z,25.97
2022-09-14T15:07:56.202Z,25.92
2022-09-14T15:10:24.948Z,25.73
2022-09-14T15:12:52.465Z,25.77
2022-09-14T15:15:24.018Z,25.75
2022-09-14T15:17:51.665Z,25.74
2022-09-14T15:20:22.276Z,25.74
2022-09-14T15:22:49.462Z,25.61
2022-09-14T15:25:17.807Z,25.62
2022-09-14T15:27:44.561Z,25.68
2022-09-14T15:30:12.415Z,25.60
2022-09-14T15:32:39.789Z,25.67
2022-09-14T15:35:09.361Z,25.66
2022-09-14T15:37:36.054Z,25.55
2022-09-14T15:40:03.782Z,25.48
2022-09-14T15:42:31.262Z,25.66
2022-09-14T15:45:00.869Z,25.70
2022-09-14T15:47:27.664Z,25.48
2022-09-14T15:49:54.154Z,25.27
2022-09-14T15:52:20.767Z,25.34
2022-09-14T15:54:47.382Z,25.28
2022-09-14T15:57:14.025Z,25.27
2022-09-14T15:59:40.801Z,25.18
2022-09-14T16:02:07.917Z,25.07
2022-09-14T16:04:41.017Z,24.80
2022-09-14T16:07:11.507Z,24.68
2022-09-14T16:09:39.768Z,24.37
2022-09-14T16:12:07.887Z,24.43
2022-09-14T16:14:34.677Z,24.24
2022-09-14T16:17:01.315Z,24.24
2022-09-14T16:19:31.088Z,24.24
2022-09-14T16:22:01.003Z,23.93
2022-09-14T16:24:31.526Z,24.05
2022-09-14T16:26:59.801Z,23.95
2022-09-14T16:29:28.982Z,23.92
2022-09-14T16:31:55.599Z,23.87
2022-09-14T16:34:24.976Z,23.88
2022-09-14T16:36:52.184Z,23.81
2022-09-14T16:39:23.024Z,24.09
2022-09-14T16:41:49.936Z,24.00
2022-09-14T16:44:20.078Z,24.08
2022-09-14T16:46:48.762Z,24.29
2022-09-14T16:49:16.838Z,24.41
2022-09-14T16:51:43.818Z,24.30
2022-09-14T16:54:15.352Z,24.31
2022-09-14T16:56:42.140Z,24.28
2022-09-14T16:59:12.231Z,24.07
2022-09-14T17:01:44.000Z,23.72
2022-09-14T17:04:13.906Z,23.35
2022-09-14T17:06:42.474Z,23.45
2022-09-14T17:09:14.645Z,23.40
2022-09-14T17:11:42.019Z,23.16
2022-09-14T17:14:12.995Z,22.94
2022-09-14T17:16:40.503Z,22.78
2022-09-14T17:19:07.105Z,22.64
2022-09-14T17:21:36.851Z,22.68
2022-09-14T17:24:04.866Z,22.66
2022-09-14T17:26:32.589Z,22.58
2022-09-14T17:29:00.681Z,22.52
2022-09-14T17:31:30.762Z,22.58
2022-09-14T17:34:01.875Z,22.45
2022-09-14T17:36:31.918Z,22.32
2022-09-14T17:39:01.966Z,22.32
2022-09-14T17:41:33.118Z,22.26
2022-09-14T17:44:02.221Z,22.25
2022-09-14T17:46:32.437Z,22.18
2022-09-14T17:49:00.699Z,22.22
2022-09-14T17:51:29.579Z,22.30
2022-09-14T17:53:59.273Z,22.19
2022-09-14T17:56:30.914Z,22.29
2022-09-14T17:59:20.424Z,22.25
2022-09-14T18:01:48.214Z,22.05
2022-09-14T18:04:15.667Z,21.92
2022-09-14T18:06:44.948Z,22.11
2022-09-14T18:09:15.092Z,22.12
2022-09-14T18:11:42.597Z,22.06
2022-09-14T18:14:12.759Z,21.92
2022-09-14T18:16:40.327Z,22.02
2022-09-14T18:19:06.945Z,22.11
2022-09-14T18:21:33.527Z,22.11
2022-09-14T18:24:00.282Z,22.04
2022-09-14T18:26:26.846Z,22.00
2022-09-14T18:28:56.175Z,22.20
2022-09-14T18:31:35.797Z,22.23
2022-09-14T18:34:22.496Z,22.19
2022-09-14T18:37:10.247Z,22.22
2022-09-14T18:44:55.664Z,21.83
2022-09-14T18:47:22.522Z,21.64
2022-09-14T18:49:50.062Z,21.72
2022-09-14T18:52:19.721Z,21.70
2022-09-14T18:54:46.296Z,21.79
2022-09-14T18:57:12.913Z,21.56
2022-09-14T18:59:39.488Z,21.54
2022-09-14T19:02:06.346Z,21.41
2022-09-14T19:04:36.769Z,21.31
2022-09-14T19:07:03.891Z,21.21
2022-09-14T19:09:30.774Z,21.19
2022-09-14T19:11:57.653Z,21.20
2022-09-14T19:14:24.155Z,21.20
2022-09-14T19:16:50.714Z,21.20
2022-09-14T19:19:17.453Z,21.11
2022-09-14T19:21:45.281Z,21.09
2022-09-14T19:24:14.389Z,21.12
2022-09-14T19:26:47.661Z,21.12
2022-09-14T19:29:17.054Z,21.10
2022-09-14T19:31:43.715Z,21.02
2022-09-14T19:34:11.405Z,21.00
2022-09-14T19:36:37.929Z,21.01
2022-09-14T19:39:04.996Z,20.97
2022-09-14T19:41:33.308Z,20.89
2022-09-14T19:44:00.562Z,20.80
2022-09-14T19:46:27.847Z,20.77
2022-09-14T19:48:55.052Z,20.63
2022-09-14T19:51:25.337Z,20.53
2022-09-14T19:53:53.890Z,20.50
2022-09-14T19:56:23.149Z,20.37
2022-09-14T19:58:52.295Z,20.34
2022-09-14T20:01:20.515Z,20.31
2022-09-14T20:03:48.392Z,20.32
2022-09-14T20:06:26.165Z,20.32
2022-09-14T20:08:55.857Z,20.27
2022-09-14T20:11:24.211Z,20.25
2022-09-14T20:13:54.253Z,20.28
2022-09-14T20:16:33.257Z,20.23
2022-09-14T20:19:10.565Z,20.24
2022-09-14T20:21:37.694Z,20.07
2022-09-14T20:24:22.092Z,20.27
2022-09-14T20:26:54.056Z,20.09
2022-09-14T20:29:23.744Z,19.87
2022-09-14T20:31:51.092Z,19.89
2022-09-14T20:34:20.562Z,20.07
2022-09-14T20:36:49.032Z,20.10
2022-09-14T20:39:15.827Z,20.15
2022-09-14T20:41:42.549Z,20.12
2022-09-14T20:44:11.977Z,20.05
2022-09-14T20:46:40.705Z,19.94
2022-09-14T20:49:20.047Z,19.98
2022-09-14T20:51:46.809Z,19.78
2022-09-14T20:54:15.310Z,19.90
2022-09-14T20:56:42.814Z,19.93
2022-09-14T20:59:12.121Z,19.86
2022-09-14T21:01:40.476Z,19.82
2022-09-14T21:04:11.961Z,19.78
2022-09-14T21:06:44.296Z,19.69
2022-09-14T21:09:11.939Z,19.68
2022-09-14T21:11:39.339Z,19.58
2022-09-14T21:14:06.308Z,19.59
2022-09-14T21:16:36.972Z,19.67
2022-09-14T21:19:12.589Z,19.70
2022-09-14T21:21:39.877Z,19.69
2022-09-14T21:24:09.601Z,19.74
2022-09-14T21:26:41.888Z,19.66
2022-09-14T21:29:12.910Z,19.49
2022-09-14T21:31:39.707Z,19.32
2022-09-14T21:34:10.300Z,19.36
2022-09-14T21:36:42.800Z,19.52
2022-09-14T21:39:12.975Z,19.54
2022-09-14T21:41:40.591Z,19.31
2022-09-14T21:44:08.234Z,18.97
2022-09-14T21:46:35.897Z,18.90
2022-09-14T21:49:02.585Z,18.73
2022-09-14T21:51:37.105Z,18.36
2022-09-14T21:54:08.680Z,18.18
2022-09-14T21:56:38.667Z,18.30
2022-09-14T21:59:09.486Z,18.61
2022-09-14T22:01:39.929Z,18.65
2022-09-14T22:04:09.462Z,18.65
2022-09-14T22:06:36.048Z,18.66
2022-09-14T22:09:02.753Z,18.72
2022-09-14T22:11:35.184Z,18.95
2022-09-14T22:14:02.999Z,19.12
2022-09-14T22:16:32.959Z,19.24
2022-09-14T22:19:03.904Z,19.06
2022-09-14T22:21:32.185Z,18.91
2022-09-14T22:24:00.881Z,18.83
2022-09-14T22:26:30.066Z,18.81
2022-09-14T22:28:58.234Z,18.71
2022-09-14T22:31:26.139Z,18.68
2022-09-14T22:33:55.338Z,18.65
2022-09-14T22:36:22.372Z,18.71
2022-09-14T22:38:48.941Z,18.69
2022-09-14T22:41:19.415Z,18.74
2022-09-14T22:43:46.662Z,18.75
2022-09-14T22:48:58.372Z,18.58
2022-09-14T22:51:27.926Z,18.73
2022-09-14T22:53:54.800Z,18.75
2022-09-14T22:56:31.231Z,18.85
2022-09-14T22:58:58.820Z,18.87
2022-09-14T23:01:28.399Z,19.07
2022-09-14T23:03:58.767Z,19.03
2022-09-14T23:06:30.377Z,19.01
2022-09-14T23:08:57.812Z,18.76
2022-09-14T23:11:24.812Z,18.77
2022-09-14T23:13:51.699Z,18.78
2022-09-14T23:16:21.349Z,18.81
2022-09-14T23:18:55.850Z,18.80
2022-09-14T23:21:22.797Z,18.76
2022-09-14T23:23:53.966Z,18.86
2022-09-14T23:26:21.397Z,19.12
2022-09-14T23:28:59.237Z,19.01
2022-09-14T23:31:27.019Z,18.95
2022-09-14T23:33:55.864Z,18.93
2022-09-14T23:36:23.598Z,18.90
2022-09-14T23:38:51.019Z,18.91
2022-09-14T23:41:19.353Z,19.05
2022-09-14T23:43:46.220Z,18.80
2022-09-14T23:46:12.854Z,18.87
2022-09-14T23:48:39.722Z,18.83
2022-09-14T23:51:08.033Z,18.92
2022-09-14T23:53:35.128Z,18.84
2022-09-14T23:56:02.038Z,18.95
2022-09-14T23:58:28.541Z,18.84
